createdAt,value
2016-05-25T00:00:56.703Z,15.75
2016-05-25T00:01:43.081Z,15.72
2016-05-25T00:02:42.568Z,15.75
2016-05-25T00:03:42.430Z,15.74
2016-05-25T00:04:42.621Z,15.69
2016-05-25T00:05:42.639Z,15.68
2016-05-25T00:06:42.345Z,15.74
2016-05-25T00:07:42.691Z,15.68
2016-05-25T00:09:42.744Z,15.6
2016-05-25T00:10:42.605Z,15.64
2016-05-25T00:11:42.780Z,15.53
2016-05-25T00:12:42.813Z,15.62
2016-05-25T00:13:42.832Z,15.56
2016-05-25T00:14:42.851Z,15.6
2016-05-25T00:15:42.884Z,15.67
2016-05-25T00:16:57.091Z,15.68
2016-05-25T00:17:42.937Z,15.67
2016-05-25T00:18:42.955Z,15.71
2016-05-25T00:20:42.992Z,15.74
2016-05-25T00:21:43.026Z,15.72
2016-05-25T00:22:43.044Z,15.67
2016-05-25T00:23:43.078Z,15.78
2016-05-25T00:24:42.940Z,15.59
2016-05-25T00:25:43.115Z,15.56
2016-05-25T00:26:42.992Z,15.69
2016-05-25T00:27:57.354Z,15.69
2016-05-25T00:28:43.029Z,15.67
2016-05-25T00:29:43.220Z,15.68
2016-05-25T00:30:43.237Z,15.78
2016-05-25T00:31:43.131Z,15.74
2016-05-25T00:32:57.321Z,15.64
2016-05-25T00:33:43.152Z,15.6
2016-05-25T00:34:43.186Z,15.72
2016-05-25T00:35:43.360Z,15.67
2016-05-25T00:36:43.378Z,15.56
2016-05-25T00:37:43.396Z,15.53
2016-05-25T00:38:43.431Z,15.6
2016-05-25T00:39:43.450Z,15.53
2016-05-25T00:40:43.311Z,15.56
2016-05-25T00:41:43.346Z,15.53
2016-05-25T00:42:43.535Z,15.51
2016-05-25T00:43:43.538Z,15.59
2016-05-25T00:44:43.571Z,15.56
2016-05-25T00:45:43.606Z,15.57
2016-05-25T00:46:43.655Z,15.67
2016-05-25T00:47:43.658Z,15.57
2016-05-25T00:48:57.849Z,15.62
2016-05-25T00:49:43.538Z,15.56
2016-05-25T00:51:43.747Z,15.46
2016-05-25T00:52:43.781Z,15.44
2016-05-25T00:53:43.784Z,15.49
2016-05-25T00:54:43.801Z,15.56
2016-05-25T00:55:43.852Z,15.6
2016-05-25T00:56:43.854Z,15.57
2016-05-25T00:57:43.888Z,15.41
2016-05-25T00:58:43.594Z,15.5
2016-05-25T00:59:43.769Z,15.54
2016-05-25T01:00:58.131Z,15.57
2016-05-25T01:01:43.820Z,15.64
2016-05-25T01:02:43.855Z,15.6
2016-05-25T01:03:58.201Z,15.64
2016-05-25T01:04:44.047Z,15.57
2016-05-25T01:05:44.066Z,15.56
2016-05-25T01:06:44.099Z,15.57
2016-05-25T01:08:44.136Z,15.43
2016-05-25T01:11:58.394Z,15.38
2016-05-25T01:12:58.413Z,15.39
2016-05-25T01:13:44.259Z,15.38
2016-05-25T01:14:44.121Z,15.35
2016-05-25T01:15:58.483Z,15.43
2016-05-25T01:16:44.329Z,15.41
2016-05-25T01:17:44.363Z,15.47
2016-05-25T01:18:44.382Z,15.41
2016-05-25T01:19:44.416Z,15.27
2016-05-25T01:20:44.418Z,15.29
2016-05-25T01:21:44.453Z,15.25
2016-05-25T01:22:44.471Z,15.46
2016-05-25T01:23:44.504Z,15.34
2016-05-25T01:24:44.539Z,15.41
2016-05-25T01:25:44.557Z,15.28
2016-05-25T01:26:44.559Z,15.27
2016-05-25T01:28:44.612Z,15.49
2016-05-25T01:29:44.646Z,15.46
2016-05-25T01:30:44.664Z,15.29
2016-05-25T01:31:44.698Z,15.41
2016-05-25T01:32:44.717Z,15.41
2016-05-25T01:33:44.735Z,15.28
2016-05-25T01:34:44.597Z,15.28
2016-05-25T01:35:58.959Z,15.27
2016-05-25T01:36:44.805Z,15.25
2016-05-25T01:37:44.824Z,15.21
2016-05-25T01:38:44.857Z,15.29
2016-05-25T01:39:44.876Z,15.21
2016-05-25T01:40:44.895Z,15.16
2016-05-25T01:41:44.928Z,15.29
2016-05-25T01:43:44.965Z,15.35
2016-05-25T01:44:44.999Z,15.34
2016-05-25T01:45:44.861Z,15.34
2016-05-25T01:46:45.191Z,15.17
2016-05-25T01:47:45.085Z,15.23
2016-05-25T01:48:45.088Z,15.13
2016-05-25T01:49:45.122Z,15.2
2016-05-25T01:50:45.140Z,15.14
2016-05-25T01:51:59.345Z,15.14
2016-05-25T01:52:45.193Z,15.25
2016-05-25T01:53:45.210Z,15.17
2016-05-25T01:54:45.073Z,15.25
2016-05-25T01:55:45.262Z,15.14
2016-05-25T01:56:45.281Z,15.14
2016-05-25T01:58:45.333Z,15.25
2016-05-25T01:59:45.195Z,15.28
2016-05-25T02:00:45.370Z,15.34
2016-05-25T02:01:45.420Z,15.27
2016-05-25T02:02:45.454Z,15.25
2016-05-25T02:03:45.441Z,15.23
2016-05-25T02:04:45.475Z,15.28
2016-05-25T02:05:45.492Z,15.28
2016-05-25T02:06:45.527Z,15.16
2016-05-25T02:07:59.717Z,15.11
2016-05-25T02:08:45.579Z,15.21
2016-05-25T02:09:45.425Z,15.21
2016-05-25T02:10:45.616Z,15.28
2016-05-25T02:13:45.686Z,15.27
2016-05-25T02:14:45.721Z,15.2
2016-05-25T02:15:45.723Z,15.16
2016-05-25T02:16:45.616Z,15.13
2016-05-25T02:17:59.962Z,14.95
2016-05-25T02:18:59.981Z,14.99
2016-05-25T02:19:45.827Z,15.06
2016-05-25T02:20:45.705Z,15.06
2016-05-25T02:21:45.707Z,15.01
2016-05-25T02:22:45.882Z,15.11
2016-05-25T02:24:00.104Z,15.11
2016-05-25T02:24:45.935Z,15.1
2016-05-25T02:25:45.812Z,15.06
2016-05-25T02:26:45.987Z,15.06
2016-05-25T02:27:45.864Z,15.09
2016-05-25T02:28:46.039Z,14.98
2016-05-25T02:29:46.056Z,15.03
2016-05-25T02:30:45.934Z,15.09
2016-05-25T02:32:00.922Z,14.99
2016-05-25T02:32:46.128Z,15.02
2016-05-25T02:33:45.990Z,15.03
2016-05-25T02:34:46.181Z,15.01
2016-05-25T02:35:46.198Z,15.02
2016-05-25T02:36:46.233Z,14.89
2016-05-25T02:37:46.250Z,14.86
2016-05-25T02:39:00.456Z,14.91
2016-05-25T02:39:46.302Z,14.91
2016-05-25T02:40:46.166Z,14.77
2016-05-25T02:41:46.355Z,14.8
2016-05-25T02:42:46.217Z,14.7
2016-05-25T02:43:46.236Z,14.89
2016-05-25T02:44:46.426Z,14.89
2016-05-25T02:46:46.916Z,14.81
2016-05-25T02:47:46.480Z,14.77
2016-05-25T02:49:00.687Z,14.86
2016-05-25T02:50:00.735Z,14.88
2016-05-25T02:50:46.567Z,14.95
2016-05-25T02:51:46.586Z,14.89
2016-05-25T02:52:46.447Z,14.94
2016-05-25T02:53:46.466Z,14.91
2016-05-25T02:54:46.359Z,14.83
2016-05-25T02:55:46.674Z,14.94
2016-05-25T02:56:46.537Z,14.92
2016-05-25T02:57:46.726Z,14.91
2016-05-25T02:58:46.589Z,14.98
2016-05-25T02:59:46.606Z,14.81
2016-05-25T03:00:46.797Z,14.98
2016-05-25T03:01:46.925Z,14.88
2016-05-25T03:02:48.178Z,14.91
2016-05-25T03:03:46.883Z,14.88
2016-05-25T03:04:46.901Z,14.8
2016-05-25T03:05:46.919Z,14.77
2016-05-25T03:06:46.970Z,14.77
2016-05-25T03:07:46.956Z,14.72
2016-05-25T03:08:46.991Z,14.62
2016-05-25T03:09:47.008Z,14.64
2016-05-25T03:11:01.214Z,14.65
2016-05-25T03:11:47.044Z,14.61
2016-05-25T03:13:47.097Z,14.6
2016-05-25T03:14:47.116Z,14.62
2016-05-25T03:15:47.149Z,14.57
2016-05-25T03:16:47.168Z,14.55
2016-05-25T03:17:47.186Z,14.46
2016-05-25T03:20:47.132Z,14.64
2016-05-25T03:21:47.291Z,14.61
2016-05-25T03:22:47.154Z,14.72
2016-05-25T03:23:47.327Z,14.72
2016-05-25T03:24:47.362Z,14.62
2016-05-25T03:25:47.396Z,14.7
2016-05-25T03:27:01.586Z,14.78
2016-05-25T03:27:47.432Z,14.75
2016-05-25T03:28:47.451Z,14.75
2016-05-25T03:29:47.328Z,14.72
2016-05-25T03:30:47.503Z,14.7
2016-05-25T03:32:01.631Z,14.58
2016-05-25T03:32:47.539Z,14.61
2016-05-25T03:33:47.573Z,14.51
2016-05-25T03:34:47.592Z,14.61
2016-05-25T03:35:47.609Z,14.5
2016-05-25T03:36:47.628Z,14.61
2016-05-25T03:37:47.662Z,14.62
2016-05-25T03:38:47.680Z,14.57
2016-05-25T03:39:47.699Z,14.64
2016-05-25T03:41:47.750Z,14.73
2016-05-25T03:43:01.957Z,14.73
2016-05-25T03:43:47.803Z,14.73
2016-05-25T03:44:47.821Z,14.68
2016-05-25T03:45:47.855Z,14.6
2016-05-25T03:46:47.905Z,14.62
2016-05-25T03:47:47.736Z,14.65
2016-05-25T03:49:02.114Z,14.64
2016-05-25T03:50:02.132Z,14.73
2016-05-25T03:50:47.963Z,14.77
2016-05-25T03:52:02.184Z,14.81
2016-05-25T03:52:47.874Z,14.83
2016-05-25T03:53:47.877Z,14.91
2016-05-25T03:54:48.051Z,14.77
2016-05-25T03:55:48.102Z,14.75
2016-05-25T03:56:48.104Z,14.75
2016-05-25T03:57:48.123Z,14.77
2016-05-25T03:59:02.329Z,14.78
2016-05-25T03:59:48.175Z,14.81
2016-05-25T04:00:48.209Z,14.61
2016-05-25T04:01:48.726Z,14.69
2016-05-25T04:02:48.246Z,14.81
2016-05-25T04:03:48.264Z,14.8
2016-05-25T04:04:48.142Z,14.77
2016-05-25T04:05:48.316Z,14.69
2016-05-25T04:06:48.334Z,14.72
2016-05-25T04:07:48.367Z,14.72
2016-05-25T04:08:48.387Z,14.61
2016-05-25T04:09:48.405Z,14.73
2016-05-25T04:10:48.454Z,14.7
2016-05-25T04:11:48.300Z,14.65
2016-05-25T04:12:48.491Z,14.69
2016-05-25T04:14:02.541Z,14.64
2016-05-25T04:14:48.528Z,14.65
2016-05-25T04:15:48.561Z,14.73
2016-05-25T04:16:49.049Z,14.69
2016-05-25T04:18:02.785Z,14.65
2016-05-25T04:18:48.632Z,14.7
2016-05-25T04:19:48.673Z,14.61
2016-05-25T04:20:48.716Z,14.8
2016-05-25T04:21:48.773Z,14.78
2016-05-25T04:23:48.857Z,14.65
2016-05-25T04:24:48.743Z,14.7
2016-05-25T04:25:48.927Z,14.64
2016-05-25T04:26:48.641Z,14.75
2016-05-25T04:27:48.840Z,14.8
2016-05-25T04:28:49.023Z,14.75
2016-05-25T04:29:49.044Z,14.73
2016-05-25T04:30:49.082Z,14.83
2016-05-25T04:31:48.963Z,14.6
2016-05-25T04:32:49.124Z,14.64
2016-05-25T04:33:48.833Z,14.62
2016-05-25T04:34:49.165Z,14.64
2016-05-25T04:35:49.199Z,14.68
2016-05-25T04:36:49.079Z,14.72
2016-05-25T04:37:49.254Z,14.69
2016-05-25T04:38:49.291Z,14.69
2016-05-25T04:39:48.981Z,14.73
2016-05-25T04:40:49.327Z,14.68
2016-05-25T04:41:49.190Z,14.52
2016-05-25T04:42:49.365Z,14.64
2016-05-25T04:43:49.398Z,14.65
2016-05-25T04:44:49.418Z,14.77
2016-05-25T04:46:03.623Z,14.78
2016-05-25T04:46:49.470Z,14.8
2016-05-25T04:47:49.488Z,14.89
2016-05-25T04:48:49.350Z,14.91
2016-05-25T04:49:49.384Z,15.02
2016-05-25T04:50:49.559Z,14.94
2016-05-25T04:54:03.816Z,14.99
2016-05-25T04:54:49.648Z,15.03
2016-05-25T04:55:49.713Z,15.06
2016-05-25T04:57:03.886Z,15.02
2016-05-25T04:57:49.577Z,14.99
2016-05-25T04:58:49.596Z,15.01
2016-05-25T04:59:49.630Z,14.94
2016-05-25T05:00:49.633Z,14.95
2016-05-25T05:02:04.557Z,15.25
2016-05-25T05:02:49.841Z,14.95
2016-05-25T05:03:49.860Z,15.17
2016-05-25T05:04:49.893Z,15.19
2016-05-25T05:05:49.927Z,15.32
2016-05-25T05:06:49.773Z,15.31
2016-05-25T05:07:49.963Z,15.28
2016-05-25T05:08:49.982Z,15.23
2016-05-25T05:09:50.015Z,15.27
2016-05-25T05:10:49.878Z,15.29
2016-05-25T05:11:50.052Z,15.25
2016-05-25T05:12:49.759Z,15.1
2016-05-25T05:13:49.948Z,15.1
2016-05-25T05:14:50.123Z,15.11
2016-05-25T05:15:50.157Z,15.14
2016-05-25T05:16:50.176Z,15.11
2016-05-25T05:18:04.365Z,15.13
2016-05-25T05:21:04.452Z,15.07
2016-05-25T05:21:50.283Z,15.1
2016-05-25T05:22:50.332Z,15.06
2016-05-25T05:24:04.522Z,15.11
2016-05-25T05:25:04.384Z,15.11
2016-05-25T05:25:50.387Z,15.21
2016-05-25T05:26:50.406Z,15.21
2016-05-25T05:27:50.267Z,15.21
2016-05-25T05:29:04.630Z,15.09
2016-05-25T05:29:50.475Z,15.25
2016-05-25T05:30:50.494Z,15.11
2016-05-25T05:31:50.544Z,15.13
2016-05-25T05:32:50.547Z,15.17
2016-05-25T05:34:04.596Z,15.2
2016-05-25T05:34:50.583Z,15.02
2016-05-25T05:35:50.617Z,15.19
2016-05-25T05:36:50.636Z,15.09
2016-05-25T05:37:50.654Z,14.98
2016-05-25T05:38:50.688Z,15.03
2016-05-25T05:39:50.706Z,15.19
2016-05-25T05:41:04.927Z,15.21
2016-05-25T05:41:50.758Z,15.13
2016-05-25T05:43:50.810Z,15.25
2016-05-25T05:44:50.844Z,14.98
2016-05-25T05:46:50.896Z,15.2
2016-05-25T05:47:50.899Z,15.23
2016-05-25T05:49:05.106Z,15.19
2016-05-25T05:49:50.951Z,15.23
2016-05-25T05:50:50.970Z,15.28
2016-05-25T05:51:50.989Z,15.23
2016-05-25T05:52:51.006Z,15.17
2016-05-25T05:53:51.040Z,15.2
2016-05-25T05:54:51.058Z,15.23
2016-05-25T05:55:51.093Z,15.27
2016-05-25T05:56:53.298Z,15.29
2016-05-25T05:58:05.333Z,15.25
2016-05-25T05:58:51.164Z,15.27
2016-05-25T06:00:05.369Z,15.28
2016-05-25T06:00:51.200Z,15.1
2016-05-25T06:01:51.265Z,15.17
2016-05-25T06:02:51.096Z,15.17
2016-05-25T06:03:51.271Z,15.34
2016-05-25T06:04:51.319Z,15.32
2016-05-25T06:05:51.338Z,15.35
2016-05-25T06:06:51.341Z,15.47
2016-05-25T06:07:51.374Z,15.57
2016-05-25T06:09:05.425Z,15.51
2016-05-25T06:10:51.446Z,15.54
2016-05-25T06:11:51.480Z,15.6
2016-05-25T06:13:05.670Z,15.5
2016-05-25T06:13:51.516Z,15.28
2016-05-25T06:15:05.721Z,15.36
2016-05-25T06:15:51.568Z,15.38
2016-05-25T06:16:51.431Z,15.35
2016-05-25T06:17:51.604Z,15.31
2016-05-25T06:18:51.640Z,15.46
2016-05-25T06:19:51.657Z,15.39
2016-05-25T06:21:05.862Z,15.54
2016-05-25T06:21:51.695Z,15.54
2016-05-25T06:22:53.072Z,15.54
2016-05-25T06:23:51.746Z,15.62
2016-05-25T06:24:51.765Z,15.57
2016-05-25T06:25:51.798Z,15.67
2016-05-25T06:27:51.538Z,15.57
2016-05-25T06:28:51.869Z,15.6
2016-05-25T06:29:51.902Z,15.47
2016-05-25T06:30:51.905Z,15.49
2016-05-25T06:31:52.424Z,15.32
2016-05-25T06:32:52.880Z,15.38
2016-05-25T06:33:51.992Z,15.41
2016-05-25T06:34:51.855Z,15.53
2016-05-25T06:35:52.044Z,15.6
2016-05-25T06:37:06.250Z,15.49
2016-05-25T06:38:07.503Z,15.57
2016-05-25T06:38:52.099Z,15.68
2016-05-25T06:39:51.977Z,15.53
2016-05-25T06:41:52.170Z,15.54
2016-05-25T06:43:06.391Z,15.71
2016-05-25T06:44:52.256Z,15.54
2016-05-25T06:45:52.274Z,15.6
2016-05-25T06:46:52.276Z,15.78
2016-05-25T06:48:06.826Z,15.65
2016-05-25T06:48:52.345Z,15.67
2016-05-25T06:49:52.362Z,15.65
2016-05-25T06:50:52.382Z,15.84
2016-05-25T06:51:52.415Z,15.8
2016-05-25T06:53:06.620Z,16.02
2016-05-25T06:53:52.468Z,16.04
2016-05-25T06:54:52.486Z,16.01
2016-05-25T06:55:52.364Z,16.02
2016-05-25T06:56:52.554Z,16.08
2016-05-25T06:57:52.431Z,16.15
2016-05-25T06:59:52.592Z,16.05
2016-05-25T07:00:52.470Z,16.04
2016-05-25T07:01:52.833Z,15.93
2016-05-25T07:02:54.055Z,15.72
2016-05-25T07:04:06.885Z,15.59
2016-05-25T07:04:52.716Z,15.6
2016-05-25T07:05:52.750Z,15.51
2016-05-25T07:06:52.768Z,15.47
2016-05-25T07:07:53.099Z,15.54
2016-05-25T07:09:06.992Z,15.49
2016-05-25T07:09:52.854Z,15.6
2016-05-25T07:10:52.872Z,15.59
2016-05-25T07:11:52.891Z,15.71
2016-05-25T07:12:52.909Z,15.69
2016-05-25T07:13:52.787Z,15.68
2016-05-25T07:14:52.962Z,15.68
2016-05-25T07:16:52.904Z,15.87
2016-05-25T07:17:53.032Z,15.9
2016-05-25T07:19:53.084Z,15.97
2016-05-25T07:20:53.103Z,16
2016-05-25T07:21:53.137Z,15.96
2016-05-25T07:22:52.999Z,16.07
2016-05-25T07:24:07.361Z,15.89
2016-05-25T07:24:53.207Z,15.94
2016-05-25T07:25:53.225Z,15.96
2016-05-25T07:26:53.244Z,15.86
2016-05-25T07:27:53.200Z,15.9
2016-05-25T07:28:53.295Z,16.05
2016-05-25T07:31:53.742Z,15.89
2016-05-25T07:32:53.244Z,15.9
2016-05-25T07:34:07.591Z,15.83
2016-05-25T07:35:07.625Z,15.69
2016-05-25T07:35:53.455Z,15.8
2016-05-25T07:36:53.490Z,15.87
2016-05-25T07:37:53.367Z,15.83
2016-05-25T07:38:53.527Z,15.74
2016-05-25T07:39:53.560Z,15.8
2016-05-25T07:40:53.422Z,15.84
2016-05-25T07:41:53.596Z,15.86
2016-05-25T07:42:53.615Z,16.05
2016-05-25T07:43:53.649Z,15.93
2016-05-25T07:44:53.668Z,16.04
2016-05-25T07:45:53.701Z,16.07
2016-05-25T07:46:53.719Z,16.01
2016-05-25T07:47:56.269Z,16.08
2016-05-25T07:48:53.615Z,16.09
2016-05-25T07:49:53.791Z,16.21
2016-05-25T07:50:53.824Z,16.27
2016-05-25T07:51:53.843Z,16.11
2016-05-25T07:52:53.876Z,16.05
2016-05-25T07:53:53.910Z,15.96
2016-05-25T07:54:53.773Z,16.01
2016-05-25T07:56:07.963Z,16
2016-05-25T07:57:07.996Z,15.69
2016-05-25T07:58:08.186Z,15.71
2016-05-25T07:58:53.862Z,15.87
2016-05-25T08:00:54.069Z,16.04
2016-05-25T08:01:54.634Z,16.01
2016-05-25T08:02:55.216Z,16.04
2016-05-25T08:04:08.156Z,16.12
2016-05-25T08:04:54.159Z,16.25
2016-05-25T08:05:54.177Z,16.33
2016-05-25T08:06:54.195Z,16.45
2016-05-25T08:07:55.245Z,16.27
2016-05-25T08:08:54.107Z,16.33
2016-05-25T08:09:54.125Z,16.34
2016-05-25T08:10:54.300Z,16.41
2016-05-25T08:12:08.506Z,16.56
2016-05-25T08:12:55.727Z,16.56
2016-05-25T08:13:54.213Z,16.68
2016-05-25T08:14:54.388Z,16.78
2016-05-25T08:16:08.610Z,16.94
2016-05-25T08:16:54.566Z,16.96
2016-05-25T08:17:54.475Z,17.03
2016-05-25T08:18:54.493Z,16.82
2016-05-25T08:20:08.699Z,17
2016-05-25T08:21:08.718Z,17.12
2016-05-25T08:21:54.267Z,17.14
2016-05-25T08:22:54.801Z,17.31
2016-05-25T08:23:54.616Z,17.23
2016-05-25T08:24:54.634Z,17.28
2016-05-25T08:25:54.653Z,17.19
2016-05-25T08:26:54.686Z,17.31
2016-05-25T08:28:08.736Z,17.43
2016-05-25T08:28:54.739Z,17.46
2016-05-25T08:29:54.757Z,17.41
2016-05-25T08:30:54.775Z,17.44
2016-05-25T08:31:55.559Z,17.68
2016-05-25T08:32:57.625Z,17.81
2016-05-25T08:33:54.846Z,17.81
2016-05-25T08:34:54.880Z,17.81
2016-05-25T08:36:54.916Z,17.56
2016-05-25T08:38:09.139Z,17.68
2016-05-25T08:38:54.984Z,17.78
2016-05-25T08:39:54.847Z,17.64
2016-05-25T08:40:55.021Z,17.7
2016-05-25T08:41:55.039Z,17.62
2016-05-25T08:42:55.620Z,17.4
2016-05-25T08:44:09.279Z,17.28
2016-05-25T08:44:55.125Z,17.33
2016-05-25T08:45:55.144Z,17.31
2016-05-25T08:46:55.271Z,17.3
2016-05-25T08:47:56.962Z,17.26
2016-05-25T08:48:55.230Z,17.28
2016-05-25T08:49:55.232Z,17.41
2016-05-25T08:50:55.266Z,17.26
2016-05-25T08:52:09.473Z,17.54
2016-05-25T08:53:09.507Z,17.64
2016-05-25T08:53:55.337Z,17.58
2016-05-25T08:54:55.215Z,17.52
2016-05-25T08:55:55.390Z,17.66
2016-05-25T08:56:55.407Z,17.7
2016-05-25T08:57:58.082Z,17.71
2016-05-25T08:59:09.648Z,17.71
2016-05-25T09:00:55.512Z,17.86
2016-05-25T09:01:55.937Z,17.87
2016-05-25T09:02:58.393Z,17.82
2016-05-25T09:03:55.598Z,17.84
2016-05-25T09:06:09.823Z,17.86
2016-05-25T09:06:55.497Z,17.84
2016-05-25T09:07:57.875Z,17.9
2016-05-25T09:08:55.722Z,17.97
2016-05-25T09:09:55.567Z,17.95
2016-05-25T09:10:55.758Z,18
2016-05-25T09:11:55.620Z,17.92
2016-05-25T09:12:56.780Z,17.97
2016-05-25T09:13:55.828Z,18.08
2016-05-25T09:14:55.863Z,18.14
2016-05-25T09:15:55.725Z,18.08
2016-05-25T09:16:55.916Z,17.93
2016-05-25T09:17:56.948Z,17.9
2016-05-25T09:18:55.952Z,17.93
2016-05-25T09:19:55.813Z,17.92
2016-05-25T09:20:56.004Z,17.96
2016-05-25T09:21:56.022Z,17.95
2016-05-25T09:22:58.213Z,17.81
2016-05-25T09:23:56.090Z,17.68
2016-05-25T09:25:10.280Z,17.58
2016-05-25T09:25:56.126Z,17.55
2016-05-25T09:26:56.145Z,17.44
2016-05-25T09:27:56.194Z,17.23
2016-05-25T09:29:10.368Z,17.59
2016-05-25T09:29:56.059Z,17.66
2016-05-25T09:31:10.437Z,17.74
2016-05-25T09:31:56.706Z,17.82
2016-05-25T09:32:57.895Z,18
2016-05-25T09:34:56.339Z,18.1
2016-05-25T09:35:56.372Z,18.05
2016-05-25T09:36:56.390Z,17.93
2016-05-25T09:38:01.814Z,17.75
2016-05-25T09:38:56.443Z,17.72
2016-05-25T09:39:56.320Z,17.7
2016-05-25T09:40:56.494Z,17.55
2016-05-25T09:42:10.701Z,17.59
2016-05-25T09:42:57.861Z,17.71
2016-05-25T09:43:56.581Z,17.66
2016-05-25T09:44:56.583Z,17.82
2016-05-25T09:45:56.618Z,17.81
2016-05-25T09:47:10.714Z,17.77
2016-05-25T09:47:58.717Z,17.82
2016-05-25T09:48:56.688Z,17.92
2016-05-25T09:49:56.707Z,17.96
2016-05-25T09:50:56.741Z,18
2016-05-25T09:52:56.793Z,18.11
2016-05-25T09:53:56.811Z,18.18
2016-05-25T09:54:56.845Z,18.23
2016-05-25T09:55:56.707Z,18.3
2016-05-25T09:56:56.881Z,18.18
2016-05-25T09:57:59.135Z,18.07
2016-05-25T09:58:56.918Z,18.1
2016-05-25T09:59:56.967Z,18.1
2016-05-25T10:00:56.814Z,18.03
2016-05-25T10:01:57.020Z,18.05
2016-05-25T10:03:11.210Z,18.1
2016-05-25T10:03:56.900Z,18.15
2016-05-25T10:04:57.090Z,18.29
2016-05-25T10:05:57.093Z,18.29
2016-05-25T10:06:57.127Z,17.99
2016-05-25T10:08:11.442Z,18.11
2016-05-25T10:08:57.180Z,18.11
2016-05-25T10:09:57.058Z,18.02
2016-05-25T10:10:56.919Z,17.97
2016-05-25T10:12:11.438Z,18.18
2016-05-25T10:12:57.284Z,18.2
2016-05-25T10:13:57.302Z,18.3
2016-05-25T10:14:57.336Z,18.32
2016-05-25T10:15:57.355Z,18.44
2016-05-25T10:16:57.889Z,18.48
2016-05-25T10:17:57.392Z,18.29
2016-05-25T10:19:11.597Z,18.1
2016-05-25T10:19:57.443Z,18.15
2016-05-25T10:20:57.477Z,18.07
2016-05-25T10:22:57.514Z,18.02
2016-05-25T10:23:57.548Z,17.99
2016-05-25T10:24:57.411Z,18.1
2016-05-25T10:26:00.944Z,18.18
2016-05-25T10:26:57.618Z,18
2016-05-25T10:27:57.638Z,17.89
2016-05-25T10:28:57.671Z,17.96
2016-05-25T10:29:57.689Z,17.97
2016-05-25T10:30:57.707Z,17.93
2016-05-25T10:32:01.210Z,17.92
2016-05-25T10:32:57.838Z,18.05
2016-05-25T10:34:11.965Z,18.05
2016-05-25T10:34:57.812Z,18.11
2016-05-25T10:35:58.253Z,18.18
2016-05-25T10:37:57.883Z,18.44
2016-05-25T10:38:57.917Z,18.37
2016-05-25T10:39:57.966Z,18.52
2016-05-25T10:40:58.891Z,18.62
2016-05-25T10:41:58.003Z,18.51
2016-05-25T10:42:58.006Z,18.65
2016-05-25T10:43:58.039Z,18.35
2016-05-25T10:44:57.901Z,18.37
2016-05-25T10:45:58.075Z,18.51
2016-05-25T10:46:57.969Z,18.58
2016-05-25T10:47:58.160Z,18.45
2016-05-25T10:48:58.163Z,18.33
2016-05-25T10:49:58.180Z,18.14
2016-05-25T10:50:58.214Z,18.08
2016-05-25T10:51:58.077Z,18.05
2016-05-25T10:52:58.095Z,18.27
2016-05-25T10:53:58.285Z,18.2
2016-05-25T10:54:58.304Z,18.33
2016-05-25T10:55:58.182Z,18.41
2016-05-25T10:56:58.355Z,18.37
2016-05-25T10:57:58.374Z,18.23
2016-05-25T10:58:58.407Z,18.1
2016-05-25T11:00:12.613Z,17.87
2016-05-25T11:00:58.445Z,17.95
2016-05-25T11:01:58.337Z,17.97
2016-05-25T11:02:58.357Z,17.93
2016-05-25T11:03:58.531Z,17.96
2016-05-25T11:04:58.393Z,17.86
2016-05-25T11:06:12.755Z,17.81
2016-05-25T11:06:58.461Z,17.86
2016-05-25T11:07:58.635Z,17.81
2016-05-25T11:08:58.653Z,17.82
2016-05-25T11:09:58.687Z,17.78
2016-05-25T11:10:58.706Z,17.72
2016-05-25T11:11:58.740Z,17.7
2016-05-25T11:12:58.742Z,17.77
2016-05-25T11:13:58.775Z,17.9
2016-05-25T11:14:58.638Z,17.9
2016-05-25T11:15:58.672Z,17.82
2016-05-25T11:16:58.847Z,17.86
2016-05-25T11:18:58.900Z,17.87
2016-05-25T11:19:58.605Z,17.95
2016-05-25T11:20:58.810Z,17.99
2016-05-25T11:22:13.158Z,17.97
2016-05-25T11:23:00.238Z,17.92
2016-05-25T11:23:59.038Z,17.95
2016-05-25T11:24:59.040Z,17.84
2016-05-25T11:25:59.075Z,17.87
2016-05-25T11:26:59.108Z,18.08
2016-05-25T11:28:00.798Z,17.81
2016-05-25T11:28:59.145Z,17.56
2016-05-25T11:30:13.351Z,17.74
2016-05-25T11:30:59.181Z,17.93
2016-05-25T11:31:59.074Z,17.96
2016-05-25T11:33:01.343Z,17.87
2016-05-25T11:33:59.096Z,17.54
2016-05-25T11:34:59.130Z,17.71
2016-05-25T11:35:59.179Z,17.79
2016-05-25T11:38:13.545Z,17.78
2016-05-25T11:38:59.390Z,17.72
2016-05-25T11:39:59.409Z,17.95
2016-05-25T11:40:59.443Z,18.08
2016-05-25T11:41:59.305Z,18.17
2016-05-25T11:42:59.495Z,18.21
2016-05-25T11:44:59.531Z,18.47
2016-05-25T11:45:59.550Z,18.41
2016-05-25T11:46:59.428Z,18.51
2016-05-25T11:48:01.556Z,18.42
2016-05-25T11:48:59.636Z,18.37
2016-05-25T11:49:59.498Z,18.44
2016-05-25T11:50:59.672Z,18.42
2016-05-25T11:51:59.707Z,18.33
2016-05-25T11:52:59.741Z,18.41
2016-05-25T11:54:13.930Z,18.39
2016-05-25T11:54:59.777Z,18.45
2016-05-25T11:55:59.811Z,18.3
2016-05-25T11:56:59.829Z,18.15
2016-05-25T11:57:59.691Z,18.21
2016-05-25T11:58:59.882Z,18.29
2016-05-25T11:59:59.744Z,18.12
2016-05-25T12:00:59.621Z,18.08
2016-05-25T12:02:00.280Z,18.2
2016-05-25T12:03:00.893Z,18.17
2016-05-25T12:04:00.021Z,18.15
2016-05-25T12:05:00.038Z,17.95
2016-05-25T12:06:00.056Z,18.11
2016-05-25T12:07:00.075Z,17.99
2016-05-25T12:08:00.109Z,17.92
2016-05-25T12:10:00.146Z,17.92
2016-05-25T12:10:59.898Z,17.81
2016-05-25T12:12:00.213Z,17.79
2016-05-25T12:14:00.297Z,17.96
2016-05-25T12:15:00.284Z,17.89
2016-05-25T12:16:00.302Z,17.92
2016-05-25T12:17:00.180Z,17.81
2016-05-25T12:18:00.495Z,17.72
2016-05-25T12:19:14.545Z,17.74
2016-05-25T12:20:14.579Z,17.71
2016-05-25T12:21:00.425Z,17.71
2016-05-25T12:22:00.444Z,17.66
2016-05-25T12:24:00.496Z,17.56
2016-05-25T12:25:00.530Z,17.49
2016-05-25T12:26:00.532Z,17.38
2016-05-25T12:27:00.566Z,17.34
2016-05-25T12:28:00.600Z,17.34
2016-05-25T12:29:00.619Z,17.3
2016-05-25T12:30:00.637Z,17.18
2016-05-25T12:32:00.689Z,17.26
2016-05-25T12:33:01.020Z,17.3
2016-05-25T12:34:00.726Z,17.3
2016-05-25T12:35:00.760Z,17.41
2016-05-25T12:36:00.793Z,17.43
2016-05-25T12:37:00.812Z,17.4
2016-05-25T12:38:01.143Z,17.58
2016-05-25T12:39:00.865Z,17.52
2016-05-25T12:40:00.726Z,17.56
2016-05-25T12:41:15.089Z,17.4
2016-05-25T12:42:00.934Z,17.31
2016-05-25T12:43:02.156Z,17.25
2016-05-25T12:44:00.987Z,17.38
2016-05-25T12:45:01.006Z,17.49
2016-05-25T12:46:01.039Z,17.63
2016-05-25T12:47:15.245Z,17.82
2016-05-25T12:48:01.092Z,17.68
2016-05-25T12:49:01.111Z,17.72
2016-05-25T12:50:01.129Z,17.63
2016-05-25T12:51:01.005Z,17.66
2016-05-25T12:52:01.180Z,17.58
2016-05-25T12:53:04.917Z,17.54
2016-05-25T12:54:01.217Z,17.52
2016-05-25T12:55:01.252Z,17.58
2016-05-25T12:56:01.285Z,17.58
2016-05-25T12:57:15.334Z,17.64
2016-05-25T12:58:01.338Z,17.66
2016-05-25T12:59:01.340Z,17.64
2016-05-25T13:00:01.374Z,17.64
2016-05-25T13:01:01.235Z,17.64
2016-05-25T13:02:01.427Z,17.79
2016-05-25T13:03:01.319Z,17.72
2016-05-25T13:04:01.478Z,17.82
2016-05-25T13:05:15.685Z,17.77
2016-05-25T13:06:01.359Z,17.74
2016-05-25T13:07:01.393Z,17.78
2016-05-25T13:08:01.567Z,17.93
2016-05-25T13:09:01.601Z,17.97
2016-05-25T13:10:01.619Z,18.1
2016-05-25T13:11:01.638Z,18.15
2016-05-25T13:12:01.672Z,18.23
2016-05-25T13:13:15.878Z,18.3
2016-05-25T13:14:01.553Z,18.29
2016-05-25T13:15:01.742Z,18.14
2016-05-25T13:16:01.620Z,18.08
2016-05-25T13:17:01.795Z,18.1
2016-05-25T13:18:17.094Z,17.93
2016-05-25T13:19:01.831Z,17.9
2016-05-25T13:20:01.865Z,17.71
2016-05-25T13:21:01.884Z,17.62
2016-05-25T13:22:16.089Z,17.64
2016-05-25T13:24:01.797Z,17.55
2016-05-25T13:25:01.994Z,17.56
2016-05-25T13:26:01.879Z,17.55
2016-05-25T13:27:02.093Z,17.41
2016-05-25T13:29:16.363Z,17.34
2016-05-25T13:30:02.074Z,17.54
2016-05-25T13:31:02.257Z,17.49
2016-05-25T13:32:02.315Z,17.48
2016-05-25T13:33:16.513Z,17.49
2016-05-25T13:34:02.353Z,17.52
2016-05-25T13:35:02.394Z,17.46
2016-05-25T13:36:02.431Z,17.55
2016-05-25T13:37:02.451Z,17.54
2016-05-25T13:38:03.520Z,17.72
2016-05-25T13:39:02.338Z,17.54
2016-05-25T13:40:02.376Z,17.43
2016-05-25T13:41:02.552Z,17.4
2016-05-25T13:42:02.617Z,17.51
2016-05-25T13:43:02.606Z,17.59
2016-05-25T13:44:16.813Z,17.54
2016-05-25T13:46:16.881Z,17.52